This is the latest recevied weather packets stored in our database for station/object KB3UMW-13. If no packets are shown the sender has not sent any weather packets the latest 10 day(s).
| Time | Temp. | Humidity | Pressure | Rain* | Wind** | Luminosity | Snow |
|---|---|---|---|---|---|---|---|
| 1777971011 | 12.78° C | 75% | 1011.6 hPa | 0 mm | - | 0 W/m² | - |
| 1777970709 | 12.22° C | 74% | 1011.4 hPa | 0 mm | - | 0 W/m² | - |
| 1777970407 | 12.22° C | 78% | 1011.3 hPa | 0 mm | - | 0 W/m² | - |
| 1777970103 | 12.22° C | 77% | 1011.7 hPa | 0 mm | - | 0 W/m² | - |
| 1777969800 | 11.11° C | 80% | 1011.5 hPa | 0 mm | - | 0 W/m² | - |
| 1777969496 | 10.56° C | 83% | 1011.3 hPa | 0 mm | - | 0 W/m² | - |
| 1777969193 | 10.56° C | 86% | 1011.6 hPa | 0 mm | - | 0 W/m² | - |
| 1777968890 | 9.44° C | 89% | 1011.6 hPa | 0 mm | - | 0 W/m² | - |
| 1777968586 | 9.44° C | 89% | 1011.4 hPa | 0 mm | - | 0 W/m² | - |
| 1777968282 | 10° C | 89% | 1011.5 hPa | 0 mm | - | 0 W/m² | - |
| 1777967978 | 10° C | 87% | 1011.5 hPa | 0 mm | - | 0 W/m² | - |
| 1777967675 | 10.56° C | 86% | 1011.4 hPa | 0 mm | - | 0 W/m² | - |
| 1777967372 | 11.11° C | 85% | 1011.5 hPa | 0 mm | - | 0 W/m² | - |
| 1777967070 | 11.67° C | 84% | 1011.6 hPa | 0 mm | - | 0 W/m² | - |
| 1777966767 | 12.22° C | 82% | 1011.4 hPa | 0 mm | - | 0 W/m² | - |
| 1777966465 | 13.33° C | 78% | 1011.3 hPa | 0 mm | - | 0 W/m² | - |
| 1777966161 | 13.89° C | 77% | 1011.3 hPa | 0 mm | - | 0 W/m² | - |
| 1777965857 | 13.89° C | 73% | 1011.4 hPa | 0 mm | - | 0 W/m² | - |
| 1777965554 | 13.89° C | 71% | 1011.4 hPa | 0 mm | - | 0 W/m² | - |
| 1777965250 | 13.33° C | 75% | 1011.1 hPa | 0 mm | - | 0 W/m² | - |
| 1777964948 | 12.22° C | 74% | 1011.3 hPa | 0 mm | - | 0 W/m² | - |
| 1777964644 | 11.11° C | 82% | 1011.3 hPa | 0 mm | - | 0 W/m² | - |
| 1777964340 | 8.33° C | 95% | 1011.4 hPa | 0 mm | - | 0 W/m² | - |
| 1777964037 | 7.22° C | 98% | 1011.3 hPa | 0 mm | - | 0 W/m² | - |
| 1777963734 | 6.67° C | 99% | 1011.3 hPa | 0 mm | - | 0 W/m² | - |
* Rain latest hour (hover to see other rain measurements)
** Current wind speed in m/s (hover to see current wind gust speed)